Historique des mesures à Cassis (13260), France
Quotidien Résumé Fevrier 3, 2018 Unités:  US    Métrique   Métrique/US
« Précédent (Jour)
Suivant (Jour) »
Quotidien Hebdomadaire Mensuel Annuel Période au choix
  Maximum: Minimum: Moyenne:
Température: 32 °F 41.2 °F 43.7 °F
Point de rosée: 32 °F 26.2 °F 29.1 °F
Humidité: Humidity % 45 % 53 %
Vitesse du vent: WindSpeedKMH mph 4.0 mph 17.8 mph
Rafales: WindSpeedGustKMH mph - -
Vent:- - WSW
Pression: 0 in 29.5 in -
Précipitations: 0.0 in    
Historical Graphs
 
 
Mesures pour : Fevrier 3, 2018
Heure Temperature Point de rosée Pression Vent Vitesse du vent Rafales Humidité Pluie (par heure)
32 °F 32 °F 0 in Calm     Humidity % HourlyPrecipMM in
00:12 43 °F 29.1 °F 29.5 in North 13.4 mph 14.0 mph 58 % 0.0 in
01:12 42.4 °F 29.5 °F 29.5 in NW 14.8 mph 23.0 mph 60 % 0.0 in
02:12 42.1 °F 28.8 °F 29.5 in North 5.5 mph 22.7 mph 59 % 0.0 in
03:12 41.9 °F 28 °F 29.5 in NNW 18.7 mph 25.6 mph 58 % 0.0 in
04:12 41.5 °F 27.3 °F 29.5 in NW 25.3 mph 25.3 mph 57 % 0.0 in
05:12 41.5 °F 27.3 °F 29.5 in WNW 21.2 mph 32.3 mph 57 % 0.0 in
06:12 41.2 °F 28.4 °F 29.5 in WNW 31.7 mph 31.7 mph 60 % 0.0 in
07:12 41.2 °F 29.1 °F 29.5 in NW 34.9 mph 47.1 mph 62 % 0.0 in
08:12 41.2 °F 30.4 °F 29.5 in NNW 22.4 mph 22.4 mph 65 % 0.0 in
09:12 42.1 °F 31.1 °F 29.6 in NW 17.7 mph 28.5 mph 65 % 0.0 in
10:12 43 °F 31.6 °F 29.6 in NNW 19.5 mph 21.9 mph 64 % 0.0 in
11:12 44.8 °F 31.8 °F 29.6 in NW 20.6 mph 24.5 mph 60 % 0.0 in
12:12 46.9 °F 32.4 °F 29.6 in NW 21.6 mph 21.6 mph 57 % 0.0 in
13:12 48 °F 32.2 °F 29.6 in NNE 14.8 mph 14.8 mph 54 % 0.0 in
14:12 48 °F 30.2 °F 29.6 in NNW 22.4 mph 42.5 mph 50 % 0.0 in
15:12 48.6 °F 29.7 °F 29.6 in North 10.8 mph 27.0 mph 48 % 0.0 in
16:12 47.8 °F 29.5 °F 29.6 in West 20.9 mph 22.7 mph 49 % 0.0 in
17:12 47.1 °F 26.8 °F 29.6 in WNW 27.7 mph 27.7 mph 45 % 0.0 in
18:12 46 °F 26.2 °F 29.6 in NW 6.1 mph 18.3 mph 46 % 0.0 in
19:12 45.1 °F 26.4 °F 29.6 in NW 14.8 mph 22.7 mph 48 % 0.0 in
20:12 44.4 °F 26.4 °F 29.6 in NNW 19.8 mph 19.8 mph 49 % 0.0 in
21:12 44.4 °F 27 °F 29.6 in North 4.0 mph 4.0 mph 50 % 0.0 in
Observations météo à CASSIS
WU-History script by Weather Underground - 1 mb